Mansfield Depot, Connecticut
Current Conditions -  °F | °C
As of 10:52 AM on Thursday 27 Nov 2014 (Local Time) from KIJD Reporting Station
Overcast Overcast  
Wind Chill: 30°   Ceiling: 5000
Heat Index: 36°   Visibility: 10mi
Dew Point: 29°   Wind: 8mph
Humidity: 76%   Direction: 350°N
Pressure: 29.96"   Gusts: NA
Location:  41.8°N, 72.31°W
Report Text: KIJD 271552Z AUTO 35007KT 10SM FEW015 BKN050 OVC120 02/M02 A2996 RMK AO2 SLP147 T00221017
Loading
Personal Weather Stations






























Interactive Weather Map New forecast layout! Learn more

10-Day Weather Forecast

Advertisements
Track Severe Weather on mobile